Time;durP1;ratioP1;P1;durP2;ratioP2;P2;SDS_P1;SDS_P2;PMS_P1;PMS_P2;Temp;Humidity;BMP_temperature;BMP_pressure;BME280_temperature;BME280_humidity;BME280_pressure;Samples;Min_cycle;Max_cycle;Signal;HPM_P1;HPM_P2
2023/07/21 00:00:15;;;;;;;1.33;1.23;;;16.60;99.90;;;;;;5016507;28;20210;-76
2023/07/21 00:02:42;;;;;;;1.00;0.90;;;16.60;99.90;;;;;;5034971;28;20206;-75
2023/07/21 00:05:09;;;;;;;1.03;0.93;;;16.60;99.90;;;;;;5031830;28;20199;-70
2023/07/21 00:07:40;;;;;;;1.77;0.97;;;16.60;99.90;;;;;;5030617;28;20203;-74
2023/07/21 00:10:09;;;;;;;1.53;1.23;;;16.60;99.90;;;;;;5017986;28;20205;-71
2023/07/21 00:12:40;;;;;;;1.87;1.77;;;16.60;99.90;;;;;;5031496;28;20624;-72
2023/07/21 00:15:07;;;;;;;2.40;1.30;;;16.80;99.90;;;;;;5034902;28;20199;-73
2023/07/21 00:17:34;;;;;;;1.87;1.43;;;16.80;99.90;;;;;;5033618;28;20232;-72
2023/07/21 00:20:10;;;;;;;2.90;1.30;;;16.90;99.90;;;;;;5034573;28;20206;-72
2023/07/21 00:22:35;;;;;;;2.23;1.33;;;16.70;99.90;;;;;;5030241;28;20285;-67
2023/07/21 00:25:01;;;;;;;3.80;1.50;;;16.70;99.90;;;;;;4964544;28;20289;-76
2023/07/21 00:27:27;;;;;;;1.83;1.37;;;16.60;99.90;;;;;;5036150;28;20199;-77
2023/07/21 00:29:52;;;;;;;3.70;1.67;;;16.60;99.90;;;;;;5036073;28;20257;-73
2023/07/21 00:32:18;;;;;;;5.20;1.70;;;16.60;99.90;;;;;;5030850;28;20208;-74
2023/07/21 00:34:44;;;;;;;2.20;1.17;;;16.50;99.90;;;;;;5028272;28;20224;-68
2023/07/21 00:37:10;;;;;;;2.27;1.17;;;16.50;99.90;;;;;;5027094;28;20212;-72
2023/07/21 00:39:36;;;;;;;5.20;1.10;;;16.50;99.90;;;;;;5036353;28;20605;-73
2023/07/21 00:42:04;;;;;;;0.93;0.93;;;16.50;99.90;;;;;;5029097;28;20915;-72
2023/07/21 00:44:30;;;;;;;2.30;1.27;;;16.50;99.90;;;;;;5034560;28;20209;-72
2023/07/21 00:46:55;;;;;;;3.07;1.17;;;16.40;99.90;;;;;;5031847;28;20217;-73
2023/07/21 00:49:21;;;;;;;1.40;1.30;;;16.40;99.90;;;;;;5029711;28;20337;-72
2023/07/21 00:51:46;;;;;;;3.10;1.20;;;16.40;99.90;;;;;;5035837;28;20624;-71
2023/07/21 00:54:12;;;;;;;1.60;1.50;;;16.40;99.90;;;;;;5035893;28;20218;-72
2023/07/21 00:56:38;;;;;;;1.33;1.23;;;16.60;99.90;;;;;;5033077;28;20205;-72
2023/07/21 00:59:04;;;;;;;3.53;1.23;;;16.50;99.90;;;;;;5031304;28;20225;-72
2023/07/21 01:01:29;;;;;;;3.67;1.27;;;16.50;99.90;;;;;;5035763;28;20199;-73
2023/07/21 01:03:56;;;;;;;2.67;1.27;;;16.40;99.90;;;;;;5029382;28;20787;-72
2023/07/21 01:06:27;;;;;;;1.60;1.03;;;16.40;99.90;;;;;;5030960;28;20220;-72
2023/07/21 01:08:58;;;;;;;2.00;1.37;;;16.40;99.90;;;;;;5037197;28;20596;-72
2023/07/21 01:11:24;;;;;;;1.97;1.30;;;16.30;99.90;;;;;;5033556;28;20234;-73
2023/07/21 01:13:53;;;;;;;3.57;1.50;;;16.30;99.90;;;;;;5035758;28;20211;-73
2023/07/21 01:16:21;;;;;;;1.90;1.10;;;16.30;99.90;;;;;;5036766;28;20665;-72
2023/07/21 01:18:48;;;;;;;2.53;1.20;;;16.30;99.90;;;;;;5039347;28;20204;-72
2023/07/21 01:21:25;;;;;;;1.87;1.10;;;16.20;99.90;;;;;;5039358;28;20352;-72
2023/07/21 01:23:58;;;;;;;2.30;1.10;;;16.20;99.90;;;;;;5008508;28;20198;-71
2023/07/21 01:26:25;;;;;;;2.30;1.70;;;16.20;99.90;;;;;;5041070;28;20199;-70
2023/07/21 01:28:51;;;;;;;4.03;1.67;;;16.20;99.90;;;;;;5037447;28;20206;-70
2023/07/21 01:31:19;;;;;;;1.63;1.10;;;16.20;99.90;;;;;;5039580;28;20266;-70
2023/07/21 01:33:45;;;;;;;1.13;1.00;;;16.20;99.90;;;;;;5039547;28;20573;-70
2023/07/21 01:36:12;;;;;;;1.00;1.00;;;16.20;99.90;;;;;;5039625;28;20218;-70
2023/07/21 01:38:38;;;;;;;4.17;1.40;;;16.10;99.90;;;;;;5032412;28;20199;-70
2023/07/21 01:41:06;;;;;;;2.37;1.50;;;16.10;99.90;;;;;;5036793;28;20211;-70
2023/07/21 01:43:32;;;;;;;1.80;1.40;;;16.10;99.90;;;;;;5033489;28;20310;-70
2023/07/21 01:45:57;;;;;;;2.90;1.50;;;16.10;99.90;;;;;;5036105;28;20662;-71
2023/07/21 01:48:24;;;;;;;2.17;1.70;;;16.00;99.90;;;;;;5039028;28;20290;-71
2023/07/21 01:50:50;;;;;;;4.63;1.57;;;16.10;99.90;;;;;;5032279;28;20238;-71
2023/07/21 01:53:22;;;;;;;1.57;1.33;;;16.00;99.90;;;;;;5038790;28;20205;-72
2023/07/21 01:56:18;;;;;;;4.43;1.20;;;16.10;99.90;;;;;;5028321;28;20749;-71
2023/07/21 01:58:46;;;;;;;3.97;1.57;;;16.00;99.90;;;;;;5037410;28;20196;-72
2023/07/21 02:01:14;;;;;;;2.10;1.83;;;15.90;99.90;;;;;;5036555;28;20203;-71
2023/07/21 02:03:40;;;;;;;2.07;1.50;;;15.90;99.90;;;;;;5035403;28;20607;-72
2023/07/21 02:06:16;;;;;;;3.83;1.80;;;15.90;99.90;;;;;;5038683;28;20226;-73
2023/07/21 02:08:42;;;;;;;2.67;1.70;;;15.90;99.90;;;;;;5037322;28;20220;-73
2023/07/21 02:11:09;;;;;;;5.87;1.70;;;15.90;99.90;;;;;;5035916;28;20217;-72
2023/07/21 02:13:34;;;;;;;4.53;1.77;;;15.90;99.90;;;;;;5038598;28;20291;-70
2023/07/21 02:16:00;;;;;;;4.20;2.03;;;15.90;99.90;;;;;;5030254;28;20264;-72
2023/07/21 02:18:25;;;;;;;2.43;1.10;;;16.00;99.90;;;;;;5033736;28;20195;-69
2023/07/21 02:20:51;;;;;;;3.80;1.90;;;16.00;99.90;;;;;;5038326;28;20206;-71
2023/07/21 02:23:16;;;;;;;3.03;1.67;;;16.00;99.90;;;;;;4983258;28;20310;-72
2023/07/21 02:25:44;;;;;;;3.07;1.77;;;15.90;99.90;;;;;;5034497;28;20678;-71
2023/07/21 02:28:09;;;;;;;3.23;1.63;;;15.90;99.90;;;;;;5038910;28;20219;-71
2023/07/21 02:30:35;;;;;;;4.30;1.50;;;15.90;99.90;;;;;;5033234;28;20205;-71
2023/07/21 02:33:00;;;;;;;2.20;1.40;;;15.90;99.90;;;;;;5035109;28;20195;-71
2023/07/21 02:35:27;;;;;;;2.60;1.77;;;15.90;99.90;;;;;;5037300;28;20205;-68
2023/07/21 02:37:53;;;;;;;1.60;1.50;;;15.80;99.90;;;;;;5036483;28;20229;-69
2023/07/21 02:40:18;;;;;;;3.87;1.67;;;15.80;99.90;;;;;;5038126;28;20201;-68
2023/07/21 02:42:44;;;;;;;3.30;1.73;;;15.80;99.90;;;;;;5035044;28;20700;-66
2023/07/21 02:45:10;;;;;;;1.70;1.60;;;15.70;99.90;;;;;;5033611;28;20276;-66
2023/07/21 02:47:35;;;;;;;3.00;1.67;;;15.90;99.90;;;;;;5034596;28;20299;-74
2023/07/21 02:50:01;;;;;;;1.80;1.57;;;16.00;99.90;;;;;;5033131;28;20231;-74
2023/07/21 02:52:27;;;;;;;2.53;1.70;;;15.90;99.90;;;;;;5033040;28;20215;-70
2023/07/21 02:54:53;;;;;;;3.27;1.70;;;15.80;99.90;;;;;;5035804;28;20200;-69
2023/07/21 02:57:18;;;;;;;3.23;1.30;;;15.90;99.90;;;;;;5037378;28;20343;-70
2023/07/21 02:59:45;;;;;;;2.17;1.50;;;15.90;99.90;;;;;;5037468;28;20199;-69
2023/07/21 03:02:11;;;;;;;1.80;1.70;;;15.90;99.90;;;;;;5028563;28;20206;-69
2023/07/21 03:04:37;;;;;;;5.10;4.10;;;15.90;99.90;;;;;;5037448;28;20205;-70
2023/07/21 03:07:04;;;;;;;3.30;2.40;;;15.90;99.90;;;;;;5025885;28;20221;-69
2023/07/21 03:09:29;;;;;;;2.67;1.90;;;15.90;99.90;;;;;;5037462;28;20207;-69
2023/07/21 03:11:56;;;;;;;3.23;1.43;;;15.90;99.90;;;;;;5037027;28;20211;-70
2023/07/21 03:14:22;;;;;;;2.43;1.57;;;15.90;99.90;;;;;;5038019;28;21060;-70
2023/07/21 03:16:47;;;;;;;2.73;1.90;;;15.80;99.90;;;;;;5031773;28;20199;-69
2023/07/21 03:19:13;;;;;;;3.00;1.87;;;15.70;99.90;;;;;;5032830;28;20905;-70
2023/07/21 03:21:38;;;;;;;2.07;1.70;;;15.70;99.90;;;;;;5035511;28;20195;-70
2023/07/21 03:24:07;;;;;;;4.47;1.87;;;15.70;99.90;;;;;;4977526;28;20668;-70
2023/07/21 03:26:32;;;;;;;3.63;2.53;;;15.70;99.90;;;;;;5029634;28;20249;-70
2023/07/21 03:28:58;;;;;;;2.43;1.80;;;15.70;99.90;;;;;;5034965;28;20217;-70
2023/07/21 03:31:24;;;;;;;3.37;2.20;;;15.60;99.90;;;;;;5035850;28;20315;-69
2023/07/21 03:33:49;;;;;;;3.30;1.60;;;15.60;99.90;;;;;;5035110;28;20242;-69
2023/07/21 03:36:15;;;;;;;2.33;2.07;;;15.80;99.90;;;;;;5035442;28;20229;-69
2023/07/21 03:38:41;;;;;;;3.40;2.03;;;15.80;99.90;;;;;;5036725;28;20215;-69
2023/07/21 03:41:08;;;;;;;3.20;1.80;;;15.80;99.90;;;;;;5037022;28;20602;-69
2023/07/21 03:43:38;;;;;;;4.13;1.97;;;15.70;99.90;;;;;;5037118;28;20210;-69
2023/07/21 03:46:05;;;;;;;3.13;1.60;;;15.60;99.90;;;;;;5029500;28;20254;-69
2023/07/21 03:48:31;;;;;;;6.77;1.90;;;15.60;99.90;;;;;;5036872;28;20680;-69
2023/07/21 03:51:00;;;;;;;4.00;2.10;;;15.60;99.90;;;;;;5036463;28;20336;-69
2023/07/21 03:53:27;;;;;;;2.57;1.93;;;15.60;99.90;;;;;;5036799;28;20202;-69
2023/07/21 03:55:53;;;;;;;2.67;1.67;;;15.60;99.90;;;;;;5029286;28;20344;-70
2023/07/21 03:58:18;;;;;;;2.20;1.90;;;15.60;99.90;;;;;;5029079;28;20777;-68
2023/07/21 04:00:44;;;;;;;5.70;2.20;;;15.60;99.90;;;;;;5036071;28;20195;-69
2023/07/21 04:03:10;;;;;;;6.53;2.67;;;15.60;99.90;;;;;;5031137;28;20925;-68
2023/07/21 04:05:35;;;;;;;3.27;2.30;;;15.60;99.90;;;;;;5036207;28;20282;-68
2023/07/21 04:08:01;;;;;;;4.33;2.40;;;15.60;99.90;;;;;;5033114;28;20665;-68
2023/07/21 04:10:27;;;;;;;7.50;2.73;;;15.60;99.90;;;;;;5036428;28;20200;-68
2023/07/21 04:12:52;;;;;;;5.67;2.73;;;15.60;99.90;;;;;;5032646;28;20225;-69
2023/07/21 04:15:18;;;;;;;3.10;2.23;;;15.60;99.90;;;;;;5017870;28;20230;-69
2023/07/21 04:17:44;;;;;;;5.17;2.00;;;15.70;99.90;;;;;;5033865;28;20635;-68
2023/07/21 04:20:10;;;;;;;3.00;2.00;;;15.60;99.90;;;;;;5030837;28;20207;-68
2023/07/21 04:22:37;;;;;;;2.67;2.00;;;15.70;99.90;;;;;;4990744;28;20223;-64
2023/07/21 04:25:03;;;;;;;3.27;2.40;;;15.70;99.90;;;;;;5026381;28;20202;-68
2023/07/21 04:27:29;;;;;;;3.60;2.40;;;15.70;99.90;;;;;;5031409;28;20237;-75
2023/07/21 04:29:55;;;;;;;4.13;2.60;;;15.80;99.90;;;;;;5031371;28;20202;-68
2023/07/21 04:32:20;;;;;;;3.13;1.73;;;15.90;99.90;;;;;;5033346;28;20224;-67
2023/07/21 04:34:46;;;;;;;2.80;2.27;;;15.90;99.90;;;;;;5033411;28;20202;-68
2023/07/21 04:37:13;;;;;;;3.70;1.70;;;15.90;99.90;;;;;;5035206;28;20867;-68
2023/07/21 04:39:41;;;;;;;6.00;2.43;;;16.10;99.90;;;;;;5034506;28;20195;-68
2023/07/21 04:42:09;;;;;;;2.17;1.97;;;16.20;99.90;;;;;;5030765;28;20209;-67
2023/07/21 04:44:34;;;;;;;5.13;2.67;;;16.30;99.90;;;;;;5035910;28;20224;-67
2023/07/21 04:47:00;;;;;;;3.83;2.53;;;16.50;99.90;;;;;;5029814;28;20674;-68
2023/07/21 04:49:25;;;;;;;4.23;2.20;;;16.70;99.90;;;;;;5030578;28;20226;-67
2023/07/21 04:51:51;;;;;;;4.80;2.03;;;16.70;99.90;;;;;;5033324;28;20226;-68
2023/07/21 04:54:16;;;;;;;3.73;2.17;;;16.80;99.90;;;;;;5030197;28;20221;-68
2023/07/21 04:56:43;;;;;;;4.47;2.47;;;16.70;99.90;;;;;;5027630;28;20189;-68
2023/07/21 04:59:09;;;;;;;3.60;2.40;;;16.80;99.90;;;;;;5035688;28;20217;-69
2023/07/21 05:01:35;;;;;;;4.93;2.47;;;16.90;99.90;;;;;;5035777;28;20207;-67
2023/07/21 05:04:01;;;;;;;10.43;3.83;;;16.90;99.90;;;;;;5032704;28;20285;-66
2023/07/21 05:06:26;;;;;;;4.20;2.70;;;16.90;99.90;;;;;;5032140;28;20231;-75
2023/07/21 05:08:52;;;;;;;5.17;2.60;;;16.90;99.90;;;;;;5035604;28;20288;-76
2023/07/21 05:11:17;;;;;;;4.43;2.43;;;16.90;99.90;;;;;;5035612;28;20214;-71
2023/07/21 05:13:45;;;;;;;4.07;2.07;;;16.90;99.90;;;;;;5030733;28;20200;-70
2023/07/21 05:16:10;;;;;;;2.67;2.30;;;16.80;99.90;;;;;;5035481;28;20199;-71
2023/07/21 05:18:37;;;;;;;2.60;1.90;;;17.00;99.90;;;;;;5032297;28;20602;-71
2023/07/21 05:21:02;;;;;;;3.77;1.87;;;17.10;99.90;;;;;;5029845;28;20668;-69
2023/07/21 05:23:29;;;;;;;2.53;1.80;;;17.10;99.90;;;;;;4987501;28;20204;-69
2023/07/21 05:26:01;;;;;;;3.43;2.00;;;17.10;99.90;;;;;;5031562;28;20200;-69
2023/07/21 05:28:28;;;;;;;8.17;2.00;;;17.10;99.90;;;;;;5027757;28;20220;-67
2023/07/21 05:30:54;;;;;;;1.87;1.73;;;17.30;99.90;;;;;;5033892;28;20234;-75
2023/07/21 05:33:20;;;;;;;2.67;1.77;;;17.20;99.90;;;;;;5014341;28;20203;-73
2023/07/21 05:35:45;;;;;;;2.83;1.93;;;17.30;99.90;;;;;;5034714;28;20560;-74
2023/07/21 05:38:13;;;;;;;2.13;1.80;;;17.30;99.90;;;;;;5035057;28;20255;-73
2023/07/21 05:40:39;;;;;;;4.00;2.07;;;17.30;99.90;;;;;;5030833;28;20207;-71
2023/07/21 05:43:05;;;;;;;6.30;2.10;;;17.30;99.90;;;;;;5034977;28;20200;-70
2023/07/21 05:45:30;;;;;;;3.07;1.93;;;17.50;99.90;;;;;;5035161;28;20652;-72
2023/07/21 05:47:56;;;;;;;4.03;1.70;;;17.50;99.90;;;;;;5025679;28;20325;-71
2023/07/21 05:50:21;;;;;;;1.70;1.60;;;17.60;99.90;;;;;;5034644;28;20710;-76
2023/07/21 05:52:51;;;;;;;3.93;1.93;;;17.60;99.90;;;;;;5033378;28;20303;-71
2023/07/21 05:55:16;;;;;;;5.67;2.33;;;17.50;99.90;;;;;;5035161;28;20338;-77
2023/07/21 05:57:42;;;;;;;2.00;1.80;;;17.50;99.90;;;;;;5036268;28;20673;-77
2023/07/21 06:00:14;;;;;;;4.20;1.73;;;17.50;99.90;;;;;;5036311;28;20207;-74
2023/07/21 06:02:40;;;;;;;4.20;1.97;;;17.50;99.90;;;;;;5036560;28;20201;-63
2023/07/21 06:05:07;;;;;;;4.13;2.30;;;17.90;99.90;;;;;;5036302;28;20209;-67
2023/07/21 06:07:33;;;;;;;4.73;2.60;;;18.00;99.90;;;;;;5038397;28;20705;-66
2023/07/21 06:09:58;;;;;;;3.20;2.20;;;17.80;99.90;;;;;;5035960;28;20303;-67
2023/07/21 06:12:24;;;;;;;2.23;1.97;;;18.10;99.90;;;;;;5032193;28;20588;-72
2023/07/21 06:14:49;;;;;;;2.43;1.87;;;18.20;99.90;;;;;;5034300;28;20260;-70
2023/07/21 06:17:16;;;;;;;7.07;2.33;;;18.10;99.90;;;;;;5032681;28;20220;-67
2023/07/21 06:19:41;;;;;;;3.47;2.17;;;18.00;99.90;;;;;;5019600;28;20199;-69
2023/07/21 06:22:07;;;;;;;5.60;2.37;;;18.00;99.90;;;;;;5035193;28;20639;-66
2023/07/21 06:24:32;;;;;;;5.30;1.97;;;17.90;99.90;;;;;;4990419;28;20207;-69
2023/07/21 06:26:59;;;;;;;5.13;2.17;;;18.10;99.90;;;;;;5018989;28;20196;-68
2023/07/21 06:29:24;;;;;;;2.37;1.90;;;17.80;99.90;;;;;;5036876;28;20207;-77
2023/07/21 06:31:51;;;;;;;5.83;2.20;;;17.80;99.90;;;;;;5038320;28;20217;-84
2023/07/21 06:34:17;;;;;;;7.03;2.60;;;17.90;99.90;;;;;;5038609;28;20257;-79
2023/07/21 06:36:43;;;;;;;6.50;3.23;;;17.90;99.90;;;;;;5038240;28;20194;-80
2023/07/21 06:39:09;;;;;;;4.13;2.40;;;18.00;99.90;;;;;;5032301;28;20541;-79
2023/07/21 06:41:35;;;;;;;3.33;1.63;;;18.00;99.90;;;;;;5033472;28;20281;-81
2023/07/21 06:44:01;;;;;;;4.27;2.27;;;18.00;99.90;;;;;;5033784;28;20586;-80
2023/07/21 06:46:26;;;;;;;5.67;2.67;;;17.80;99.90;;;;;;5038600;28;20617;-81
2023/07/21 06:48:53;;;;;;;2.77;1.70;;;17.80;99.90;;;;;;5028134;28;20215;-65
2023/07/21 06:51:19;;;;;;;2.97;2.20;;;17.80;99.90;;;;;;5033993;28;20233;-73
2023/07/21 06:53:45;;;;;;;6.33;2.60;;;17.50;99.90;;;;;;5032838;28;20195;-71
2023/07/21 06:56:13;;;;;;;4.07;2.57;;;17.50;99.90;;;;;;5036215;28;20574;-69
2023/07/21 06:58:39;;;;;;;8.03;2.47;;;17.50;99.90;;;;;;5034198;28;20215;-69
2023/07/21 07:01:05;;;;;;;4.90;3.00;;;17.70;99.90;;;;;;5027211;28;20214;-70
2023/07/21 07:03:30;;;;;;;3.90;2.13;;;17.50;99.90;;;;;;5035198;28;20206;-73
2023/07/21 07:05:57;;;;;;;3.03;2.10;;;17.70;99.90;;;;;;5034007;28;20210;-74
2023/07/21 07:08:22;;;;;;;1.67;1.40;;;17.80;99.90;;;;;;5017613;28;20211;-75
2023/07/21 07:10:48;;;;;;;2.83;2.20;;;17.70;99.90;;;;;;5039007;28;20201;-74
2023/07/21 07:13:14;;;;;;;2.57;2.37;;;17.70;99.90;;;;;;5037345;28;20208;-76
2023/07/21 07:15:39;;;;;;;6.43;2.77;;;17.90;99.90;;;;;;5034777;28;20249;-75
2023/07/21 07:18:05;;;;;;;4.67;3.17;;;18.00;99.90;;;;;;5037102;28;20570;-75
2023/07/21 07:20:31;;;;;;;6.63;3.37;;;17.90;99.90;;;;;;5030263;28;20193;-76
2023/07/21 07:22:56;;;;;;;6.50;3.00;;;17.80;99.90;;;;;;5013436;28;20302;-72
2023/07/21 07:25:25;;;;;;;3.50;3.07;;;17.80;99.90;;;;;;5034991;28;20201;-68
2023/07/21 07:27:52;;;;;;;2.87;2.47;;;17.80;99.90;;;;;;5030616;28;20211;-68
2023/07/21 07:30:20;;;;;;;3.80;2.70;;;17.80;99.90;;;;;;5025672;28;20207;-80
2023/07/21 07:32:45;;;;;;;4.47;2.93;;;17.90;99.90;;;;;;5033159;28;20294;-81
2023/07/21 07:35:11;;;;;;;6.93;3.00;;;18.00;99.90;;;;;;5025926;28;20331;-80
2023/07/21 07:37:37;;;;;;;4.10;2.83;;;18.10;99.90;;;;;;5031973;28;20706;-80
2023/07/21 07:40:05;;;;;;;5.67;3.40;;;18.20;99.90;;;;;;5029179;28;20303;-81
2023/07/21 07:42:30;;;;;;;9.70;3.97;;;18.10;99.90;;;;;;5032806;28;20210;-81
2023/07/21 07:44:59;;;;;;;3.77;2.80;;;18.10;99.90;;;;;;5036304;28;20200;-70
2023/07/21 07:47:25;;;;;;;5.00;3.70;;;18.00;99.90;;;;;;5025606;28;20196;-69
2023/07/21 07:49:51;;;;;;;5.53;4.13;;;18.00;99.90;;;;;;5033481;28;20253;-76
2023/07/21 07:52:18;;;;;;;4.30;3.57;;;17.90;99.90;;;;;;5032805;28;20233;-76
2023/07/21 07:54:43;;;;;;;6.53;3.70;;;18.00;99.90;;;;;;5035128;28;20621;-72
2023/07/21 07:57:09;;;;;;;8.93;5.20;;;18.10;99.90;;;;;;5033756;28;20199;-72
2023/07/21 07:59:34;;;;;;;9.83;4.90;;;18.10;99.90;;;;;;5033256;28;20970;-72
2023/07/21 08:02:00;;;;;;;10.43;5.17;;;18.20;99.90;;;;;;5037024;28;20741;-75
2023/07/21 08:04:25;;;;;;;8.33;5.47;;;18.30;99.90;;;;;;5033849;28;20206;-71
2023/07/21 08:06:51;;;;;;;7.57;5.17;;;18.30;99.90;;;;;;5027259;28;20429;-69
2023/07/21 08:09:17;;;;;;;10.70;5.37;;;18.30;99.90;;;;;;5032683;28;20653;-65
2023/07/21 08:11:42;;;;;;;11.23;5.60;;;18.30;99.90;;;;;;5017988;28;20224;-80
2023/07/21 08:14:08;;;;;;;12.27;6.00;;;18.30;99.90;;;;;;5034664;28;20739;-79
2023/07/21 08:16:35;;;;;;;10.17;5.70;;;18.20;99.90;;;;;;5034205;28;20225;-67
2023/07/21 08:19:01;;;;;;;10.93;5.90;;;18.40;99.90;;;;;;5033686;28;20301;-70
2023/07/21 08:21:30;;;;;;;12.00;6.33;;;18.50;99.90;;;;;;5031444;28;20229;-69
2023/07/21 08:23:55;;;;;;;9.40;5.57;;;18.60;99.90;;;;;;5001898;28;20193;-70
2023/07/21 08:26:21;;;;;;;8.73;6.07;;;18.70;99.90;;;;;;5032623;28;20664;-72
2023/07/21 08:28:47;;;;;;;9.27;5.23;;;18.50;99.90;;;;;;5033435;28;20206;-71
2023/07/21 08:31:13;;;;;;;10.90;4.93;;;18.80;99.90;;;;;;5032850;28;20217;-69
2023/07/21 08:33:39;;;;;;;4.97;4.37;;;18.60;99.90;;;;;;5027782;28;20226;-70
2023/07/21 08:36:08;;;;;;;7.60;5.20;;;18.90;99.90;;;;;;5026553;28;20208;-74
2023/07/21 08:38:34;;;;;;;8.03;4.53;;;18.80;99.90;;;;;;5030112;28;20224;-74
2023/07/21 08:41:05;;;;;;;8.93;4.83;;;18.70;99.90;;;;;;5031348;28;20838;-73
2023/07/21 08:43:31;;;;;;;5.67;4.57;;;19.00;99.90;;;;;;5030657;28;20204;-79
2023/07/21 08:46:01;;;;;;;11.63;4.90;;;19.10;99.90;;;;;;5029978;28;20682;-79
2023/07/21 08:48:31;;;;;;;7.73;5.43;;;19.10;99.90;;;;;;5034550;28;20456;-78
2023/07/21 08:50:57;;;;;;;8.17;4.87;;;18.90;99.90;;;;;;5035573;28;20252;-78
2023/07/21 08:53:26;;;;;;;9.57;5.37;;;18.90;99.90;;;;;;5036156;28;21084;-80
2023/07/21 08:55:56;;;;;;;10.10;5.43;;;19.00;99.90;;;;;;5035736;28;20198;-78
2023/07/21 08:58:22;;;;;;;11.57;5.57;;;18.90;99.90;;;;;;5033969;28;20224;-74
2023/07/21 09:00:54;;;;;;;9.57;5.63;;;19.20;99.90;;;;;;5031372;28;20671;-71
2023/07/21 09:03:22;;;;;;;8.97;4.60;;;19.40;99.90;;;;;;5030668;28;20226;-71
2023/07/21 09:05:49;;;;;;;7.63;5.27;;;19.40;99.90;;;;;;5032828;28;20206;-71
2023/07/21 09:08:22;;;;;;;7.43;4.57;;;19.20;99.90;;;;;;5030176;28;20210;-79
2023/07/21 09:10:48;;;;;;;4.90;4.37;;;19.20;99.90;;;;;;5030740;28;20205;-77
2023/07/21 09:13:16;;;;;;;12.03;4.97;;;19.30;99.90;;;;;;5035273;28;20679;-71
2023/07/21 09:15:53;;;;;;;9.77;5.20;;;19.50;99.90;;;;;;5033278;28;20197;-75
2023/07/21 09:18:40;;;;;;;5.17;4.17;;;19.40;99.90;;;;;;5034679;28;20201;-70
2023/07/21 09:21:07;;;;;;;13.43;5.57;;;19.40;99.90;;;;;;5034262;28;20234;-74
2023/07/21 09:23:32;;;;;;;7.10;5.00;;;19.40;99.90;;;;;;4986972;28;20210;-75
2023/07/21 09:25:59;;;;;;;33.30;15.53;;;19.30;99.90;;;;;;5036697;28;20296;-73
2023/07/21 09:28:44;;;;;;;61.10;43.07;;;19.40;99.90;;;;;;5030827;28;20612;-73
2023/07/21 09:31:11;;;;;;;33.50;22.30;;;19.30;99.90;;;;;;5034266;28;20220;-73
2023/07/21 09:33:38;;;;;;;11.33;6.20;;;19.40;99.90;;;;;;5037177;28;20315;-70
2023/07/21 09:36:15;;;;;;;7.77;5.90;;;19.50;99.90;;;;;;5032759;28;20285;-73
2023/07/21 09:38:42;;;;;;;10.77;7.00;;;19.60;99.90;;;;;;5035417;28;20285;-70
2023/07/21 09:41:10;;;;;;;9.13;5.17;;;19.70;99.90;;;;;;5034529;28;20219;-74
2023/07/21 09:43:36;;;;;;;10.53;5.43;;;19.60;99.90;;;;;;5036578;28;20211;-74
2023/07/21 09:46:03;;;;;;;6.13;5.00;;;19.80;99.90;;;;;;5036557;28;21322;-74
2023/07/21 09:48:30;;;;;;;10.83;6.13;;;19.90;99.90;;;;;;5039899;28;20204;-81
2023/07/21 09:50:58;;;;;;;8.20;5.00;;;19.70;99.90;;;;;;5039749;28;20241;-80
2023/07/21 09:53:39;;;;;;;5.80;4.80;;;19.70;99.90;;;;;;5034801;28;20201;-81
2023/07/21 09:56:06;;;;;;;16.63;5.60;;;19.70;99.90;;;;;;5039199;28;20194;-80
2023/07/21 09:58:36;;;;;;;8.43;5.13;;;19.90;99.90;;;;;;5036144;28;20214;-63
2023/07/21 10:01:04;;;;;;;7.53;5.13;;;19.90;99.90;;;;;;5034220;28;20227;-67
2023/07/21 10:03:31;;;;;;;10.20;5.13;;;20.00;99.90;;;;;;5037758;28;20214;-68
2023/07/21 10:05:58;;;;;;;8.23;5.77;;;20.10;99.90;;;;;;5037555;28;20205;-77
2023/07/21 10:08:27;;;;;;;8.50;5.87;;;20.00;99.90;;;;;;5031530;28;20197;-71
2023/07/21 10:10:56;;;;;;;6.27;4.47;;;20.00;99.90;;;;;;5034112;28;20890;-72
2023/07/21 10:13:25;;;;;;;16.57;5.27;;;20.10;99.90;;;;;;5039109;28;20612;-72
2023/07/21 10:15:51;;;;;;;7.70;4.27;;;20.00;99.90;;;;;;5039207;28;20674;-73
2023/07/21 10:18:18;;;;;;;6.70;4.60;;;20.10;99.90;;;;;;5035507;28;20204;-73
2023/07/21 10:20:46;;;;;;;8.70;4.40;;;20.10;99.90;;;;;;5022959;28;21023;-80
2023/07/21 10:23:14;;;;;;;6.43;5.17;;;20.10;99.90;;;;;;4987563;28;20241;-79
2023/07/21 10:25:47;;;;;;;5.90;3.77;;;20.00;99.90;;;;;;5015753;28;20211;-76
2023/07/21 10:28:15;;;;;;;6.70;4.43;;;20.20;99.90;;;;;;5038935;28;20205;-80
2023/07/21 10:30:41;;;;;;;9.30;4.67;;;20.10;99.90;;;;;;5039274;28;20214;-69
2023/07/21 10:33:17;;;;;;;10.40;5.10;;;20.20;99.90;;;;;;5031286;28;20227;-71
2023/07/21 10:35:42;;;;;;;7.13;4.27;;;19.90;99.90;;;;;;5035229;28;20229;-68
2023/07/21 10:38:13;;;;;;;12.23;4.53;;;20.00;99.90;;;;;;5033316;28;20233;-65
2023/07/21 10:40:44;;;;;;;5.13;4.03;;;20.10;99.90;;;;;;5033621;28;20199;-70
2023/07/21 10:43:09;;;;;;;8.03;4.17;;;20.00;99.90;;;;;;5038085;28;20208;-66
2023/07/21 10:45:35;;;;;;;4.00;2.03;;;20.20;99.90;;;;;;5027170;28;20579;-78
2023/07/21 10:48:15;;;;;;;3.00;2.50;;;20.30;99.90;;;;;;5037891;28;20228;-77
2023/07/21 10:50:41;;;;;;;4.87;2.53;;;20.40;99.90;;;;;;5037639;28;20221;-77
2023/07/21 10:53:08;;;;;;;3.30;2.20;;;20.10;99.90;;;;;;5037697;28;20293;-72
2023/07/21 10:55:36;;;;;;;5.23;1.80;;;19.90;99.90;;;;;;5035440;28;20687;-68
2023/07/21 10:58:02;;;;;;;5.93;2.27;;;20.20;99.90;;;;;;5034078;28;20790;-71
2023/07/21 11:00:27;;;;;;;2.30;2.00;;;20.30;99.90;;;;;;5030028;28;20187;-76
2023/07/21 11:02:54;;;;;;;2.37;2.00;;;20.50;99.90;;;;;;5036437;28;20770;-76
2023/07/21 11:05:22;;;;;;;2.07;1.80;;;20.50;99.90;;;;;;5038188;28;20287;-76
2023/07/21 11:07:48;;;;;;;3.10;1.77;;;20.50;99.90;;;;;;5037565;28;20272;-75
2023/07/21 11:10:14;;;;;;;1.90;1.70;;;20.50;99.90;;;;;;5038250;28;20214;-76
2023/07/21 11:12:40;;;;;;;5.17;2.03;;;20.40;99.90;;;;;;5033737;28;20290;-76
2023/07/21 11:15:08;;;;;;;2.67;1.87;;;20.20;99.90;;;;;;5033384;28;20201;-76
2023/07/21 11:17:34;;;;;;;3.80;2.10;;;20.20;99.90;;;;;;5036232;28;20283;-76
2023/07/21 11:20:06;;;;;;;3.00;1.80;;;20.10;99.90;;;;;;5027431;28;20302;-76
2023/07/21 11:22:33;;;;;;;9.57;2.30;;;20.10;99.90;;;;;;4996669;28;20654;-78
2023/07/21 11:25:12;;;;;;;3.23;2.07;;;20.20;99.90;;;;;;5036874;28;20742;-77
2023/07/21 11:27:44;;;;;;;3.43;2.30;;;20.40;99.90;;;;;;5033971;28;20251;-76
2023/07/21 11:30:15;;;;;;;4.07;2.17;;;20.50;99.90;;;;;;5037957;28;20324;-76
2023/07/21 11:32:40;;;;;;;2.63;1.73;;;20.60;99.90;;;;;;5036174;28;20229;-76
2023/07/21 11:35:07;;;;;;;3.43;2.40;;;20.40;99.90;;;;;;5027737;28;20219;-76
2023/07/21 11:37:37;;;;;;;4.77;2.23;;;20.50;99.90;;;;;;5028555;28;20684;-76
2023/07/21 11:40:15;;;;;;;3.13;1.80;;;20.60;99.90;;;;;;5037359;28;20270;-74
2023/07/21 11:42:45;;;;;;;1.90;1.80;;;20.60;99.90;;;;;;5033786;28;20205;-75
2023/07/21 11:45:38;;;;;;;2.20;2.00;;;20.70;99.90;;;;;;5037434;28;20663;-76
2023/07/21 11:48:15;;;;;;;2.83;2.20;;;20.60;99.90;;;;;;5035356;28;21053;-76
2023/07/21 11:50:54;;;;;;;3.27;2.20;;;20.60;99.90;;;;;;5035154;28;20232;-75
2023/07/21 11:53:25;;;;;;;3.17;2.33;;;20.40;99.90;;;;;;5036805;28;20202;-75
2023/07/21 11:55:51;;;;;;;3.37;1.87;;;20.50;99.90;;;;;;5026004;28;20673;-75
2023/07/21 11:58:16;;;;;;;2.20;2.03;;;20.60;99.90;;;;;;5037066;28;20216;-76
2023/07/21 12:00:43;;;;;;;2.37;1.90;;;20.70;99.90;;;;;;5037019;28;20199;-76
2023/07/21 12:03:10;;;;;;;2.70;1.67;;;20.60;99.90;;;;;;5037296;28;20576;-75
2023/07/21 12:05:35;;;;;;;1.77;1.67;;;20.70;99.90;;;;;;5037146;28;20229;-75
2023/07/21 12:08:01;;;;;;;1.87;1.77;;;20.70;99.90;;;;;;5030304;28;20538;-75
2023/07/21 12:10:27;;;;;;;7.70;4.30;;;20.70;99.90;;;;;;5031995;28;20232;-74
2023/07/21 12:12:53;;;;;;;2.37;2.17;;;20.80;99.90;;;;;;5037152;28;20209;-75
2023/07/21 12:15:19;;;;;;;4.33;2.27;;;20.80;99.90;;;;;;5036561;28;20207;-76
2023/07/21 12:17:47;;;;;;;4.07;3.53;;;20.80;99.90;;;;;;5036837;28;20309;-77
2023/07/21 12:20:13;;;;;;;1.93;1.40;;;20.80;99.90;;;;;;5031833;28;20261;-76
2023/07/21 12:22:40;;;;;;;4.13;2.13;;;20.70;99.90;;;;;;4998278;28;20199;-76
2023/07/21 12:25:07;;;;;;;3.60;2.40;;;20.70;99.90;;;;;;5038989;28;20198;-76
2023/07/21 12:27:32;;;;;;;3.37;2.10;;;20.80;99.90;;;;;;5036512;28;20214;-76
2023/07/21 12:29:58;;;;;;;2.73;2.37;;;20.80;99.90;;;;;;5030758;28;20209;-76
2023/07/21 12:32:24;;;;;;;2.13;1.93;;;21.00;99.90;;;;;;5031807;28;20325;-76
2023/07/21 12:34:49;;;;;;;4.13;1.63;;;21.00;99.90;;;;;;5036519;28;20202;-76
2023/07/21 12:37:15;;;;;;;2.37;1.80;;;20.80;99.90;;;;;;5036799;28;20206;-77
2023/07/21 12:39:40;;;;;;;5.77;1.57;;;20.90;99.80;;;;;;5036613;28;20219;-76
2023/07/21 12:42:07;;;;;;;3.73;1.90;;;21.00;99.90;;;;;;5036714;28;20296;-75
2023/07/21 12:44:33;;;;;;;2.60;2.00;;;20.70;99.90;;;;;;5035431;28;20214;-77